Time;durP1;ratioP1;P1;durP2;ratioP2;P2;SDS_P1;SDS_P2;PMS_P1;PMS_P2;Temp;Humidity;BMP_temperature;BMP_pressure;BME280_temperature;BME280_humidity;BME280_pressure;Samples;Min_cycle;Max_cycle;Signal;HPM_P1;HPM_P2
2021/03/29 00:00:21;;;;;;;11.67;4.77;;;4.80;99.90;;;;;;5053443;28;20199;-74
2021/03/29 00:02:48;;;;;;;9.90;4.67;;;4.80;99.90;;;;;;5071935;28;20205;-75
2021/03/29 00:05:16;;;;;;;13.27;4.67;;;4.80;99.90;;;;;;5071056;28;20250;-74
2021/03/29 00:07:45;;;;;;;7.77;4.80;;;4.80;99.90;;;;;;5071651;28;20660;-74
2021/03/29 00:10:13;;;;;;;10.50;5.30;;;4.80;99.90;;;;;;5071027;28;20255;-75
2021/03/29 00:12:43;;;;;;;8.43;4.73;;;4.70;99.90;;;;;;5071693;28;20201;-74
2021/03/29 00:15:16;;;;;;;11.43;5.30;;;4.70;99.90;;;;;;5071247;28;20288;-75
2021/03/29 00:17:42;;;;;;;11.73;5.37;;;4.60;99.90;;;;;;5071001;28;20266;-74
2021/03/29 00:20:12;;;;;;;9.50;4.90;;;4.60;99.90;;;;;;5087558;28;20205;-74
2021/03/29 00:22:40;;;;;;;9.83;5.30;;;4.60;99.90;;;;;;5095544;28;20241;-74
2021/03/29 00:25:09;;;;;;;10.03;5.00;;;4.60;99.90;;;;;;5054904;28;20245;-74
2021/03/29 00:27:36;;;;;;;10.20;4.87;;;4.50;99.90;;;;;;5068742;28;20602;-75
2021/03/29 00:30:05;;;;;;;9.40;5.10;;;4.50;99.90;;;;;;5074888;28;20311;-74
2021/03/29 00:32:33;;;;;;;9.47;4.77;;;4.40;99.90;;;;;;5075168;28;20306;-74
2021/03/29 00:35:00;;;;;;;7.83;5.20;;;4.40;99.90;;;;;;5075514;28;20240;-75
2021/03/29 00:37:27;;;;;;;9.50;4.90;;;4.40;99.90;;;;;;5074668;28;20265;-75
2021/03/29 00:39:54;;;;;;;10.90;4.60;;;4.30;99.90;;;;;;5075022;28;20247;-74
2021/03/29 00:42:21;;;;;;;8.57;4.93;;;4.30;99.90;;;;;;5075084;28;20269;-74
2021/03/29 00:44:47;;;;;;;7.67;4.30;;;4.20;99.90;;;;;;5074708;28;20261;-74
2021/03/29 00:47:14;;;;;;;8.47;4.73;;;4.20;99.90;;;;;;5074734;28;20237;-75
2021/03/29 00:49:42;;;;;;;9.70;4.77;;;4.20;99.90;;;;;;5074783;28;20269;-75
2021/03/29 00:52:09;;;;;;;10.77;5.00;;;4.20;99.90;;;;;;5074618;28;20208;-75
2021/03/29 00:54:37;;;;;;;9.90;4.60;;;4.20;99.90;;;;;;5090950;28;20199;-74
2021/03/29 00:57:05;;;;;;;9.87;4.80;;;4.10;99.90;;;;;;5065730;28;20589;-74
2021/03/29 00:59:32;;;;;;;10.23;4.73;;;4.10;99.90;;;;;;5074460;28;20207;-74
2021/03/29 01:01:58;;;;;;;8.87;4.63;;;3.90;99.90;;;;;;5074452;28;20195;-75
2021/03/29 01:04:25;;;;;;;8.83;4.60;;;3.90;99.90;;;;;;5074440;28;20232;-74
2021/03/29 01:06:53;;;;;;;7.07;4.37;;;3.90;99.90;;;;;;5074748;28;20227;-74
2021/03/29 01:09:23;;;;;;;8.13;4.60;;;3.80;99.90;;;;;;5067516;28;20304;-74
2021/03/29 01:11:53;;;;;;;7.67;4.60;;;3.80;99.90;;;;;;5062653;28;20351;-74
2021/03/29 01:14:25;;;;;;;7.53;4.57;;;3.80;99.90;;;;;;5064493;28;20233;-75
2021/03/29 01:16:57;;;;;;;10.13;4.90;;;3.80;99.90;;;;;;5081998;28;20264;-74
2021/03/29 01:19:38;;;;;;;11.10;5.20;;;3.80;99.90;;;;;;5072678;28;20243;-75
2021/03/29 01:22:07;;;;;;;9.10;4.67;;;3.80;99.90;;;;;;5074497;28;20203;-74
2021/03/29 01:24:50;;;;;;;8.67;4.43;;;3.80;99.90;;;;;;5057827;28;20275;-74
2021/03/29 01:27:21;;;;;;;9.07;4.70;;;3.70;99.90;;;;;;5086324;28;20294;-74
2021/03/29 01:29:50;;;;;;;8.87;4.60;;;3.70;99.90;;;;;;5053543;28;20315;-75
2021/03/29 01:32:17;;;;;;;9.43;4.40;;;3.70;99.90;;;;;;5054058;28;20602;-74
2021/03/29 01:34:44;;;;;;;10.43;4.80;;;3.60;99.90;;;;;;5069987;28;20234;-74
2021/03/29 01:37:12;;;;;;;9.23;4.90;;;3.60;99.90;;;;;;5073040;28;20242;-74
2021/03/29 01:39:42;;;;;;;7.47;4.77;;;3.70;99.90;;;;;;5053814;28;20288;-74
2021/03/29 01:42:12;;;;;;;8.87;4.47;;;3.60;99.90;;;;;;5054056;28;20239;-74
2021/03/29 01:44:40;;;;;;;7.77;4.87;;;3.60;99.90;;;;;;5053340;28;20215;-74
2021/03/29 01:47:08;;;;;;;8.13;4.37;;;3.60;99.90;;;;;;5066958;28;20199;-74
2021/03/29 01:49:35;;;;;;;7.93;4.70;;;3.60;99.90;;;;;;5082414;28;20272;-74
2021/03/29 01:52:02;;;;;;;8.67;4.23;;;3.60;99.90;;;;;;5093823;28;20251;-74
2021/03/29 01:54:32;;;;;;;7.17;4.37;;;3.50;99.90;;;;;;5093833;28;20241;-74
2021/03/29 01:56:59;;;;;;;8.70;4.20;;;3.50;99.90;;;;;;5083682;28;20195;-74
2021/03/29 01:59:25;;;;;;;7.63;4.03;;;3.50;99.90;;;;;;5073940;28;20223;-74
2021/03/29 02:01:53;;;;;;;8.53;4.73;;;3.40;99.90;;;;;;5073535;28;20286;-74
2021/03/29 02:04:20;;;;;;;8.10;4.50;;;3.40;99.90;;;;;;5073556;28;20619;-74
2021/03/29 02:06:47;;;;;;;8.93;4.40;;;3.40;99.90;;;;;;5069110;28;20296;-74
2021/03/29 02:09:14;;;;;;;8.20;4.67;;;3.40;99.90;;;;;;5073248;28;20288;-74
2021/03/29 02:11:42;;;;;;;6.93;5.03;;;3.30;99.90;;;;;;5073252;28;20237;-74
2021/03/29 02:14:09;;;;;;;9.10;4.50;;;3.30;99.90;;;;;;5053447;28;20232;-74
2021/03/29 02:16:36;;;;;;;11.27;4.73;;;3.30;99.90;;;;;;5052411;28;20268;-75
2021/03/29 02:19:07;;;;;;;13.03;4.77;;;3.30;99.90;;;;;;5072831;28;20218;-74
2021/03/29 02:21:36;;;;;;;10.23;4.80;;;3.30;99.90;;;;;;5071185;28;20203;-75
2021/03/29 02:24:05;;;;;;;9.83;5.50;;;3.30;99.90;;;;;;5072817;28;20646;-75
2021/03/29 02:26:35;;;;;;;9.87;5.90;;;3.20;99.90;;;;;;5073274;28;20257;-75
2021/03/29 02:29:02;;;;;;;9.83;6.00;;;3.10;99.90;;;;;;5073084;28;20258;-75
2021/03/29 02:31:29;;;;;;;10.40;5.23;;;3.00;99.90;;;;;;5068220;28;20744;-75
2021/03/29 02:33:58;;;;;;;8.97;4.60;;;2.90;99.90;;;;;;5061453;28;20634;-75
2021/03/29 02:36:26;;;;;;;7.13;4.50;;;2.80;99.90;;;;;;5052533;28;20239;-75
2021/03/29 02:38:53;;;;;;;7.57;4.40;;;2.80;99.90;;;;;;5054160;28;20207;-75
2021/03/29 02:41:22;;;;;;;9.33;4.60;;;2.80;99.90;;;;;;5082111;28;20233;-75
2021/03/29 02:43:49;;;;;;;9.83;4.63;;;2.80;99.90;;;;;;5092937;28;20651;-75
2021/03/29 02:46:18;;;;;;;8.03;4.43;;;2.80;99.90;;;;;;5075617;28;20266;-74
2021/03/29 02:48:45;;;;;;;7.07;4.03;;;2.70;99.90;;;;;;5072196;28;20691;-75
2021/03/29 02:51:14;;;;;;;7.93;4.30;;;2.70;99.90;;;;;;5071712;28;20288;-74
2021/03/29 02:53:49;;;;;;;8.20;4.20;;;2.60;99.90;;;;;;5071695;28;20303;-75
2021/03/29 02:56:18;;;;;;;9.63;4.60;;;2.60;99.90;;;;;;5071965;28;20255;-75
2021/03/29 02:58:49;;;;;;;6.67;4.90;;;2.50;99.90;;;;;;5072435;28;20725;-75
2021/03/29 03:01:17;;;;;;;6.40;3.93;;;2.60;99.90;;;;;;5072221;28;20226;-75
2021/03/29 03:03:45;;;;;;;7.30;4.00;;;2.50;99.90;;;;;;5072380;28;20242;-75
2021/03/29 03:06:13;;;;;;;7.67;4.20;;;2.50;99.90;;;;;;5072032;28;20758;-75
2021/03/29 03:08:41;;;;;;;8.43;4.23;;;2.50;99.90;;;;;;5072365;28;20197;-75
2021/03/29 03:11:10;;;;;;;9.27;4.47;;;2.50;99.90;;;;;;5071761;28;20230;-74
2021/03/29 03:13:37;;;;;;;8.87;4.00;;;2.50;99.90;;;;;;5070889;28;20260;-75
2021/03/29 03:16:05;;;;;;;8.50;4.20;;;2.50;99.90;;;;;;5071765;28;20215;-74
2021/03/29 03:18:32;;;;;;;8.90;4.10;;;2.50;99.90;;;;;;5069466;28;20272;-75
2021/03/29 03:20:59;;;;;;;7.07;4.17;;;2.40;99.90;;;;;;5074254;28;20232;-75
2021/03/29 03:23:25;;;;;;;7.20;4.23;;;2.50;99.90;;;;;;5085743;28;20638;-74
2021/03/29 03:25:53;;;;;;;7.20;4.60;;;2.40;99.90;;;;;;5071991;28;20225;-75
2021/03/29 03:28:21;;;;;;;10.17;4.97;;;2.40;99.90;;;;;;5071721;28;20228;-75
2021/03/29 03:30:50;;;;;;;7.33;4.30;;;2.40;99.90;;;;;;5070450;28;20226;-74
2021/03/29 03:33:19;;;;;;;9.57;4.53;;;2.30;99.90;;;;;;5070979;28;20262;-75
2021/03/29 03:35:46;;;;;;;9.30;4.03;;;2.20;99.90;;;;;;5071808;28;20209;-74
2021/03/29 03:38:15;;;;;;;5.60;4.00;;;2.20;99.90;;;;;;5071237;28;20237;-75
2021/03/29 03:40:44;;;;;;;9.43;4.13;;;2.20;99.90;;;;;;5078354;28;20292;-75
2021/03/29 03:43:16;;;;;;;7.47;4.40;;;2.20;99.90;;;;;;5071792;28;20240;-75
2021/03/29 03:45:45;;;;;;;9.47;4.50;;;2.20;99.90;;;;;;5071510;28;20676;-74
2021/03/29 03:48:13;;;;;;;6.83;3.83;;;2.20;99.90;;;;;;5071429;28;20259;-75
2021/03/29 03:50:41;;;;;;;7.47;4.43;;;2.20;99.90;;;;;;5071840;28;20236;-74
2021/03/29 03:53:08;;;;;;;7.60;4.30;;;2.10;99.90;;;;;;5070781;28;20198;-75
2021/03/29 03:55:35;;;;;;;6.47;3.80;;;2.00;99.90;;;;;;5071734;28;20265;-75
2021/03/29 03:58:02;;;;;;;6.30;4.10;;;2.00;99.90;;;;;;5071730;28;20285;-75
2021/03/29 04:00:30;;;;;;;9.60;4.50;;;2.00;99.90;;;;;;5071333;28;20203;-74
2021/03/29 04:02:56;;;;;;;5.67;4.03;;;2.00;99.90;;;;;;5071394;28;20235;-75
2021/03/29 04:05:23;;;;;;;8.37;4.20;;;1.90;99.90;;;;;;5071520;28;20588;-75
2021/03/29 04:07:50;;;;;;;8.53;3.90;;;1.90;99.90;;;;;;5071572;28;20263;-75
2021/03/29 04:10:20;;;;;;;10.33;4.47;;;1.90;99.90;;;;;;5080834;28;20212;-75
2021/03/29 04:12:52;;;;;;;10.87;4.83;;;2.00;99.90;;;;;;5081286;28;20234;-75
2021/03/29 04:15:19;;;;;;;6.60;4.60;;;2.00;99.90;;;;;;5070923;28;20197;-75
2021/03/29 04:17:47;;;;;;;8.30;4.43;;;2.00;99.90;;;;;;5070963;28;20308;-75
2021/03/29 04:20:14;;;;;;;8.70;4.40;;;2.00;99.90;;;;;;5071267;28;20230;-75
2021/03/29 04:22:41;;;;;;;9.20;5.77;;;2.00;99.90;;;;;;5069892;28;20687;-75
2021/03/29 04:25:10;;;;;;;7.80;4.33;;;2.10;99.90;;;;;;5071286;28;20285;-75
2021/03/29 04:27:37;;;;;;;9.67;4.60;;;2.10;99.90;;;;;;5071292;28;20286;-75
2021/03/29 04:30:04;;;;;;;8.60;5.00;;;2.10;99.90;;;;;;5071015;28;20307;-74
2021/03/29 04:32:31;;;;;;;7.67;4.23;;;2.00;99.90;;;;;;5070047;28;20209;-75
2021/03/29 04:34:58;;;;;;;8.43;4.40;;;2.00;99.90;;;;;;5071449;28;20237;-75
2021/03/29 04:37:25;;;;;;;5.90;4.33;;;2.00;99.90;;;;;;5071013;28;20236;-75
2021/03/29 04:39:52;;;;;;;6.43;4.30;;;2.00;99.90;;;;;;5071471;28;20279;-74
2021/03/29 04:42:19;;;;;;;7.33;4.23;;;1.90;99.90;;;;;;5070929;28;20201;-75
2021/03/29 04:44:46;;;;;;;10.13;4.40;;;1.80;99.90;;;;;;5070776;28;20235;-75
2021/03/29 04:47:12;;;;;;;9.30;4.23;;;1.80;99.90;;;;;;5069837;28;20232;-74
2021/03/29 04:49:40;;;;;;;7.57;4.70;;;1.80;99.90;;;;;;5079546;28;20221;-75
2021/03/29 04:52:08;;;;;;;9.60;4.37;;;1.70;99.90;;;;;;5065315;28;20231;-75
2021/03/29 04:54:34;;;;;;;10.70;4.30;;;1.70;99.90;;;;;;5070620;28;20201;-74
2021/03/29 04:57:01;;;;;;;10.93;4.63;;;1.70;99.90;;;;;;5070566;28;20209;-74
2021/03/29 04:59:27;;;;;;;8.53;4.70;;;1.60;99.90;;;;;;5070897;28;20243;-75
2021/03/29 05:01:54;;;;;;;7.97;4.40;;;1.60;99.90;;;;;;5067619;28;20291;-75
2021/03/29 05:04:20;;;;;;;5.57;4.00;;;1.60;99.90;;;;;;5071038;28;20249;-75
2021/03/29 05:06:47;;;;;;;9.93;4.20;;;1.60;99.90;;;;;;5073148;28;20333;-75
2021/03/29 05:09:14;;;;;;;7.83;4.20;;;1.50;99.90;;;;;;5074657;28;20659;-75
2021/03/29 05:11:47;;;;;;;7.57;4.40;;;1.50;99.90;;;;;;5074866;28;20205;-75
2021/03/29 05:14:13;;;;;;;8.07;4.00;;;1.50;99.90;;;;;;5075060;28;20271;-75
2021/03/29 05:16:40;;;;;;;8.53;4.10;;;1.50;99.90;;;;;;5075330;28;20206;-75
2021/03/29 05:19:06;;;;;;;8.63;4.13;;;1.50;99.90;;;;;;5085833;28;20249;-75
2021/03/29 05:21:33;;;;;;;7.50;4.47;;;1.40;99.90;;;;;;5075197;28;20250;-75
2021/03/29 05:23:59;;;;;;;12.43;5.07;;;1.50;99.90;;;;;;5074347;28;20249;-75
2021/03/29 05:26:27;;;;;;;9.10;4.63;;;1.60;99.90;;;;;;5074468;28;20227;-75
2021/03/29 05:28:53;;;;;;;7.50;4.57;;;1.60;99.90;;;;;;5073964;28;20262;-75
2021/03/29 05:31:20;;;;;;;9.00;4.90;;;1.60;99.90;;;;;;5074108;28;20706;-74
2021/03/29 05:33:46;;;;;;;9.63;4.53;;;1.50;99.90;;;;;;5073932;28;20242;-75
2021/03/29 05:36:14;;;;;;;8.27;4.80;;;1.50;99.90;;;;;;5076102;28;20239;-75
2021/03/29 05:38:42;;;;;;;7.67;4.73;;;1.60;99.90;;;;;;5071300;28;20200;-75
2021/03/29 05:41:09;;;;;;;10.57;5.23;;;1.50;99.90;;;;;;5070978;28;20220;-75
2021/03/29 05:43:39;;;;;;;7.87;5.10;;;1.50;99.90;;;;;;5072760;28;20579;-75
2021/03/29 05:46:05;;;;;;;10.23;5.30;;;1.60;99.90;;;;;;5073395;28;20243;-75
2021/03/29 05:48:32;;;;;;;10.00;5.80;;;1.60;99.90;;;;;;5072489;28;20294;-75
2021/03/29 05:51:00;;;;;;;10.00;5.30;;;1.60;99.90;;;;;;5072198;28;20265;-75
2021/03/29 05:53:27;;;;;;;8.53;4.90;;;1.50;99.90;;;;;;5070873;28;20203;-75
2021/03/29 05:55:54;;;;;;;9.07;4.70;;;1.50;99.90;;;;;;5071981;28;20235;-76
2021/03/29 05:58:34;;;;;;;9.73;4.33;;;1.40;99.90;;;;;;5075122;28;20196;-75
2021/03/29 06:01:02;;;;;;;8.33;4.83;;;1.40;99.90;;;;;;5072846;28;20242;-76
2021/03/29 06:03:31;;;;;;;9.83;5.53;;;1.40;99.90;;;;;;5080069;28;20201;-75
2021/03/29 06:05:59;;;;;;;11.40;5.40;;;1.50;99.90;;;;;;5072536;28;20265;-75
2021/03/29 06:08:27;;;;;;;10.70;5.23;;;1.60;99.90;;;;;;5072837;28;20207;-75
2021/03/29 06:10:54;;;;;;;8.60;5.37;;;1.60;99.90;;;;;;5073085;28;21177;-75
2021/03/29 06:13:24;;;;;;;10.97;5.33;;;1.70;99.90;;;;;;5070058;28;20201;-75
2021/03/29 06:16:03;;;;;;;7.77;5.53;;;1.80;99.90;;;;;;5073162;28;20206;-75
2021/03/29 06:18:29;;;;;;;7.87;4.93;;;2.00;99.90;;;;;;5072515;28;20743;-75
2021/03/29 06:21:08;;;;;;;10.77;5.60;;;2.20;99.90;;;;;;5083307;28;20258;-74
2021/03/29 06:23:35;;;;;;;12.37;7.50;;;2.40;99.90;;;;;;5081163;28;20245;-75
2021/03/29 06:26:23;;;;;;;13.10;7.13;;;2.60;99.90;;;;;;5072321;28;20663;-75
2021/03/29 06:28:50;;;;;;;10.90;6.57;;;2.70;99.90;;;;;;5071712;28;20202;-75
2021/03/29 06:31:32;;;;;;;10.27;6.80;;;2.90;99.90;;;;;;5072043;28;20206;-75
2021/03/29 06:33:59;;;;;;;13.07;7.13;;;3.20;99.90;;;;;;5072532;28;20640;-75
2021/03/29 06:36:32;;;;;;;12.90;6.80;;;3.30;99.90;;;;;;5072233;28;20297;-75
2021/03/29 06:39:16;;;;;;;13.97;6.40;;;3.50;99.90;;;;;;5088736;28;20198;-75
2021/03/29 06:41:52;;;;;;;9.33;5.57;;;3.80;99.90;;;;;;5072026;28;20203;-75
2021/03/29 06:44:30;;;;;;;13.43;6.30;;;3.90;99.90;;;;;;5092671;28;20215;-76
2021/03/29 06:47:06;;;;;;;10.43;5.73;;;4.20;99.90;;;;;;5073634;28;20229;-75
2021/03/29 06:49:44;;;;;;;11.40;6.03;;;4.70;99.90;;;;;;5071001;28;21624;-75
2021/03/29 06:52:24;;;;;;;8.30;5.07;;;5.60;99.90;;;;;;5072271;28;20723;-75
2021/03/29 06:54:50;;;;;;;9.30;5.50;;;6.70;99.90;;;;;;5072378;28;20214;-75
2021/03/29 06:57:30;;;;;;;11.00;5.37;;;7.90;99.90;;;;;;5071673;28;20239;-76
2021/03/29 06:59:57;;;;;;;11.37;5.13;;;9.20;99.90;;;;;;5070430;28;20317;-76
2021/03/29 07:02:39;;;;;;;9.30;5.53;;;10.10;99.90;;;;;;5068877;28;20234;-76
2021/03/29 07:05:07;;;;;;;17.17;6.77;;;10.40;99.90;;;;;;5082915;28;20209;-73
2021/03/29 07:07:34;;;;;;;13.50;6.10;;;10.30;99.90;;;;;;5071678;28;20304;-75
2021/03/29 07:10:02;;;;;;;11.83;5.63;;;11.20;99.90;;;;;;5072106;28;20672;-75
2021/03/29 07:12:33;;;;;;;9.17;5.50;;;11.60;99.90;;;;;;5071236;28;20206;-75
2021/03/29 07:15:03;;;;;;;10.40;5.07;;;11.80;99.90;;;;;;5071720;28;20195;-75
2021/03/29 07:17:34;;;;;;;11.13;4.77;;;12.00;99.90;;;;;;5071386;28;20250;-76
2021/03/29 07:20:02;;;;;;;12.37;5.17;;;12.40;99.90;;;;;;5070408;28;20296;-76
2021/03/29 07:22:29;;;;;;;9.13;4.90;;;12.70;99.90;;;;;;5078144;28;20198;-76
2021/03/29 07:25:02;;;;;;;10.83;4.37;;;12.80;99.90;;;;;;5062634;28;20270;-76
2021/03/29 07:27:30;;;;;;;6.47;3.77;;;13.80;99.90;;;;;;5053317;28;20191;-75
2021/03/29 07:29:57;;;;;;;10.17;4.40;;;14.30;99.90;;;;;;5064616;28;20222;-75
2021/03/29 07:32:29;;;;;;;8.63;3.80;;;14.70;99.90;;;;;;5072222;28;20238;-76
2021/03/29 07:34:56;;;;;;;10.75;4.40;;;14.90;99.90;;;;;;5071436;28;20296;-76
2021/03/29 07:37:32;;;;;;;9.73;3.78;;;15.50;99.90;;;;;;5071734;28;20207;-76
2021/03/29 07:39:59;;;;;;;9.05;3.97;;;16.00;99.90;;;;;;5070906;28;20568;-76
2021/03/29 07:42:39;;;;;;;6.35;4.07;;;16.10;99.90;;;;;;5071233;28;20214;-76
2021/03/29 07:45:16;;;;;;;7.05;3.67;;;15.70;99.90;;;;;;5071124;28;20254;-76
2021/03/29 07:47:46;;;;;;;6.65;3.95;;;16.10;99.90;;;;;;5067420;28;20693;-76
2021/03/29 07:50:49;;;;;;;5.55;4.00;;;16.80;99.90;;;;;;5071327;28;20215;-75
2021/03/29 07:53:20;;;;;;;5.80;3.83;;;17.30;99.90;;;;;;5064893;28;20198;-77
2021/03/29 07:55:49;;;;;;;8.30;3.72;;;17.90;99.90;;;;;;5071392;28;20195;-77
2021/03/29 07:58:17;;;;;;;6.57;3.50;;;18.00;99.90;;;;;;5070921;28;20199;-77
2021/03/29 08:01:02;;;;;;;7.60;3.80;;;18.00;99.90;;;;;;5071361;28;20207;-77
2021/03/29 08:03:46;;;;;;;5.18;3.55;;;18.70;99.90;;;;;;5073696;28;20634;-77
2021/03/29 08:06:41;;;;;;;9.18;3.65;;;18.60;99.90;;;;;;5070646;28;20199;-77
2021/03/29 08:09:11;;;;;;;6.90;3.67;;;19.50;99.90;;;;;;5070371;28;20214;-77
2021/03/29 08:12:08;;;;;;;5.85;3.25;;;19.60;99.90;;;;;;5073205;28;20231;-78
2021/03/29 08:14:42;;;;;;;6.57;3.30;;;19.10;99.90;;;;;;5069161;28;20207;-77
2021/03/29 08:17:37;;;;;;;8.80;3.30;;;19.00;99.90;;;;;;5070455;28;20312;-78
2021/03/29 08:20:11;;;;;;;7.43;3.30;;;19.40;99.90;;;;;;5070941;28;20682;-77
2021/03/29 08:22:37;;;;;;;6.30;3.20;;;19.50;99.90;;;;;;5071308;28;20234;-77
2021/03/29 08:25:06;;;;;;;7.05;3.08;;;19.40;99.90;;;;;;5071108;28;20868;-77
2021/03/29 08:27:33;;;;;;;7.50;2.88;;;19.30;99.90;;;;;;5071667;28;20207;-77
2021/03/29 08:30:18;;;;;;;10.05;3.40;;;19.00;99.90;;;;;;5070940;28;20231;-78
2021/03/29 08:32:45;;;;;;;5.28;2.85;;;19.50;99.90;;;;;;5055825;28;20243;-77
2021/03/29 08:35:13;;;;;;;4.85;2.63;;;20.60;99.90;;;;;;5051561;28;20235;-74
2021/03/29 08:37:42;;;;;;;3.97;2.53;;;21.20;99.90;;;;;;5054827;28;20195;-77
2021/03/29 08:40:13;;;;;;;4.82;2.17;;;21.50;99.90;;;;;;5072626;28;20187;-75
2021/03/29 08:42:40;;;;;;;4.05;2.17;;;21.30;99.90;;;;;;5074127;28;20280;-77
2021/03/29 08:45:09;;;;;;;6.53;2.90;;;20.50;99.90;;;;;;5074103;28;20230;-77
2021/03/29 08:47:39;;;;;;;5.00;2.38;;;19.70;99.90;;;;;;5073971;28;20253;-76
2021/03/29 08:50:09;;;;;;;5.20;2.30;;;20.30;99.90;;;;;;5074129;28;20226;-76
2021/03/29 08:52:40;;;;;;;4.10;2.47;;;20.20;99.90;;;;;;5072890;28;20231;-76
2021/03/29 08:55:08;;;;;;;3.92;2.13;;;19.80;99.90;;;;;;5073940;28;20226;-76
2021/03/29 08:57:37;;;;;;;3.47;1.95;;;20.30;99.90;;;;;;5073666;28;20286;-76
2021/03/29 09:00:10;;;;;;;3.83;2.22;;;21.90;99.90;;;;;;5074551;28;20233;-76
2021/03/29 09:02:36;;;;;;;5.13;2.05;;;22.70;99.90;;;;;;5072179;28;20343;-76
2021/03/29 09:05:06;;;;;;;6.53;2.40;;;23.10;99.90;;;;;;5070473;28;20289;-76
2021/03/29 09:07:37;;;;;;;6.03;2.53;;;23.00;99.90;;;;;;5073778;28;20195;-77
2021/03/29 09:10:14;;;;;;;3.30;2.17;;;22.60;99.90;;;;;;5074030;28;20313;-77
2021/03/29 09:12:43;;;;;;;3.95;2.38;;;21.50;99.90;;;;;;5065304;28;20231;-77
2021/03/29 09:15:13;;;;;;;3.58;2.20;;;21.80;99.90;;;;;;5073432;28;20203;-77
2021/03/29 09:17:40;;;;;;;5.03;2.47;;;22.10;99.90;;;;;;5073553;28;20301;-77
2021/03/29 09:20:18;;;;;;;6.13;3.00;;;22.70;99.90;;;;;;5073655;28;20199;-77
2021/03/29 09:22:46;;;;;;;4.65;2.85;;;23.00;99.90;;;;;;5073350;28;20195;-77
2021/03/29 09:25:13;;;;;;;7.43;2.45;;;22.10;99.90;;;;;;5073765;28;20206;-77
2021/03/29 09:27:44;;;;;;;4.57;2.47;;;22.30;99.90;;;;;;5073330;28;20290;-77
2021/03/29 09:30:13;;;;;;;4.03;2.38;;;21.60;99.90;;;;;;5073893;28;20217;-77
2021/03/29 09:32:43;;;;;;;6.10;2.30;;;21.00;99.90;;;;;;5053834;28;20242;-77
2021/03/29 09:35:11;;;;;;;5.63;2.42;;;19.60;99.90;;;;;;5069391;28;20221;-77
2021/03/29 09:37:47;;;;;;;4.80;2.33;;;20.00;99.90;;;;;;5072739;28;20231;-77
2021/03/29 09:40:14;;;;;;;4.85;2.40;;;20.00;99.90;;;;;;5075136;28;20323;-77
2021/03/29 09:42:44;;;;;;;5.15;2.53;;;20.10;99.90;;;;;;5083762;28;20210;-77
2021/03/29 09:45:13;;;;;;;5.07;2.05;;;20.60;99.90;;;;;;5072736;28;20227;-77
2021/03/29 09:47:40;;;;;;;7.25;2.45;;;21.20;99.90;;;;;;5072914;28;20681;-78
2021/03/29 09:50:09;;;;;;;4.82;2.22;;;21.80;99.90;;;;;;5072948;28;21274;-76
2021/03/29 09:52:42;;;;;;;4.53;2.40;;;22.10;99.90;;;;;;5072960;28;20223;-77
2021/03/29 09:55:11;;;;;;;4.03;2.60;;;23.50;99.50;;;;;;5073138;28;20199;-77
2021/03/29 09:57:39;;;;;;;4.15;2.33;;;22.90;99.50;;;;;;5073182;28;20195;-77
2021/03/29 10:00:18;;;;;;;4.72;2.63;;;24.40;99.90;;;;;;5072139;28;21062;-77
2021/03/29 10:02:46;;;;;;;5.40;2.95;;;22.90;98.50;;;;;;5072658;28;20621;-77
2021/03/29 10:05:15;;;;;;;6.63;3.10;;;23.00;99.90;;;;;;5072810;28;20203;-77
2021/03/29 10:07:52;;;;;;;6.35;3.25;;;23.70;97.70;;;;;;5072970;28;20552;-77
2021/03/29 10:10:27;;;;;;;6.28;3.20;;;22.10;99.20;;;;;;5061524;28;20292;-77
2021/03/29 10:13:08;;;;;;;5.32;3.10;;;22.00;99.90;;;;;;5072878;28;20234;-77
2021/03/29 10:15:36;;;;;;;5.70;2.78;;;22.90;99.00;;;;;;5073278;28;20226;-77
2021/03/29 10:18:11;;;;;;;3.85;2.40;;;22.00;99.90;;;;;;5073049;28;20211;-77
2021/03/29 10:20:39;;;;;;;6.60;2.83;;;23.10;99.90;;;;;;5073462;28;20297;-77
2021/03/29 10:23:26;;;;;;;4.95;2.40;;;24.80;96.70;;;;;;5071143;28;20230;-77
2021/03/29 10:26:11;;;;;;;4.80;2.42;;;23.90;94.90;;;;;;5069186;28;20222;-78
2021/03/29 10:28:38;;;;;;;5.78;2.90;;;22.80;96.30;;;;;;5071750;28;20231;-78
2021/03/29 10:31:05;;;;;;;6.80;2.97;;;23.10;97.60;;;;;;5072008;28;20253;-78
2021/03/29 10:33:32;;;;;;;5.70;2.63;;;23.40;96.90;;;;;;5071383;28;20214;-77
2021/03/29 10:35:58;;;;;;;6.97;2.53;;;23.00;94.00;;;;;;5071432;28;20678;-77
2021/03/29 10:38:24;;;;;;;4.78;2.17;;;22.20;96.70;;;;;;5071775;28;20238;-77
2021/03/29 10:40:51;;;;;;;5.18;2.40;;;22.70;94.40;;;;;;5075987;28;20225;-77
2021/03/29 10:43:17;;;;;;;6.55;2.38;;;21.90;95.40;;;;;;5072384;28;20270;-77
2021/03/29 10:45:44;;;;;;;5.65;2.50;;;22.00;95.50;;;;;;5072012;28;20721;-77
2021/03/29 10:48:11;;;;;;;4.35;2.25;;;22.30;96.80;;;;;;5069837;28;20286;-77
2021/03/29 10:50:38;;;;;;;6.32;2.60;;;23.00;95.70;;;;;;5071456;28;20215;-78
2021/03/29 10:53:04;;;;;;;3.85;2.20;;;23.10;95.30;;;;;;5071754;28;20237;-77
2021/03/29 10:55:31;;;;;;;3.90;2.10;;;24.00;95.00;;;;;;5071967;28;20206;-77
2021/03/29 10:57:58;;;;;;;4.18;1.80;;;25.40;92.60;;;;;;5070210;28;20615;-78
2021/03/29 11:00:25;;;;;;;4.90;2.38;;;24.70;84.20;;;;;;5072663;28;20285;-78
2021/03/29 11:02:52;;;;;;;5.20;2.00;;;23.40;91.50;;;;;;5078764;28;20218;-78
2021/03/29 11:05:20;;;;;;;3.30;1.90;;;22.90;87.40;;;;;;5067967;28;20234;-77
2021/03/29 11:07:46;;;;;;;6.40;2.10;;;22.50;87.80;;;;;;5071930;28;20658;-77
2021/03/29 11:10:13;;;;;;;4.75;2.30;;;22.00;90.10;;;;;;5071410;28;20242;-78
2021/03/29 11:12:40;;;;;;;3.63;2.10;;;22.60;89.70;;;;;;5071364;28;20226;-78
2021/03/29 11:15:08;;;;;;;3.92;1.98;;;22.40;90.20;;;;;;5071835;28;20226;-77
2021/03/29 11:17:36;;;;;;;4.20;2.47;;;24.10;88.50;;;;;;5070252;28;20235;-76
2021/03/29 11:20:03;;;;;;;4.50;2.50;;;23.90;90.30;;;;;;5071772;28;20191;-77
2021/03/29 11:22:31;;;;;;;5.30;2.10;;;24.00;91.30;;;;;;5071177;28;20741;-77
2021/03/29 11:24:57;;;;;;;4.38;2.30;;;23.70;89.90;;;;;;5072705;28;20206;-77
2021/03/29 11:27:24;;;;;;;6.30;2.33;;;21.90;90.30;;;;;;5070942;28;20670;-77
2021/03/29 11:29:51;;;;;;;6.10;2.20;;;22.60;89.60;;;;;;5071659;28;20250;-77
2021/03/29 11:32:17;;;;;;;3.55;2.28;;;23.90;87.20;;;;;;5069425;28;20199;-78
2021/03/29 11:34:44;;;;;;;4.90;2.38;;;23.70;87.30;;;;;;5069832;28;20195;-77
2021/03/29 11:37:11;;;;;;;4.57;2.28;;;23.70;86.40;;;;;;5071196;28;20219;-78
2021/03/29 11:39:38;;;;;;;5.30;2.28;;;25.10;89.60;;;;;;5068195;28;20260;-78
2021/03/29 11:42:05;;;;;;;5.88;2.33;;;24.10;83.30;;;;;;5071373;28;20668;-78
2021/03/29 11:44:31;;;;;;;5.28;2.50;;;24.20;84.80;;;;;;5071197;28;20207;-78
2021/03/29 11:46:58;;;;;;;5.20;2.40;;;23.90;84.80;;;;;;5070496;28;20202;-77
2021/03/29 11:49:24;;;;;;;4.18;2.28;;;22.30;88.60;;;;;;5071107;28;20240;-77
2021/03/29 11:51:51;;;;;;;6.07;2.58;;;24.10;92.80;;;;;;5070579;28;20211;-76
2021/03/29 11:54:17;;;;;;;4.95;2.28;;;25.90;91.40;;;;;;5070702;28;20227;-76
2021/03/29 11:56:44;;;;;;;4.35;2.58;;;26.70;82.60;;;;;;5062919;28;20257;-77
2021/03/29 11:59:11;;;;;;;3.85;2.60;;;23.80;84.10;;;;;;5070152;28;20221;-76
2021/03/29 12:01:43;;;;;;;5.22;2.70;;;24.10;87.60;;;;;;5058406;28;20651;-76
2021/03/29 12:04:14;;;;;;;6.03;2.47;;;25.20;81.90;;;;;;5066500;28;20206;-76
2021/03/29 12:06:45;;;;;;;4.55;2.63;;;23.90;83.00;;;;;;5069187;28;20281;-76
2021/03/29 12:09:19;;;;;;;4.50;2.72;;;23.70;83.00;;;;;;5069776;28;20414;-76
2021/03/29 12:11:58;;;;;;;6.13;2.35;;;23.80;81.00;;;;;;5070289;28;20254;-76
2021/03/29 12:14:29;;;;;;;5.20;2.70;;;22.90;81.10;;;;;;5072057;28;20301;-76
2021/03/29 12:16:56;;;;;;;7.15;2.83;;;24.30;83.10;;;;;;5073439;28;20222;-76
2021/03/29 12:19:23;;;;;;;6.70;2.88;;;24.10;84.40;;;;;;5074364;28;20199;-76
2021/03/29 12:21:53;;;;;;;3.63;2.42;;;24.60;82.90;;;;;;5074311;28;20195;-76
2021/03/29 12:24:22;;;;;;;5.55;2.58;;;24.00;84.20;;;;;;5072389;28;20686;-76
2021/03/29 12:26:50;;;;;;;4.45;2.72;;;24.60;82.00;;;;;;5075766;28;20274;-77
2021/03/29 12:29:21;;;;;;;7.20;3.13;;;24.20;81.10;;;;;;5073711;28;20287;-77
2021/03/29 12:31:48;;;;;;;7.25;3.60;;;24.00;86.90;;;;;;5075601;28;20678;-76
2021/03/29 12:34:15;;;;;;;7.78;2.90;;;24.60;85.10;;;;;;5073713;28;20253;-76
2021/03/29 12:36:44;;;;;;;5.13;3.30;;;24.00;89.80;;;;;;5073488;28;20292;-76
2021/03/29 12:39:18;;;;;;;6.60;3.20;;;25.60;89.20;;;;;;5076343;28;20194;-76
2021/03/29 12:41:46;;;;;;;6.40;3.20;;;24.70;81.40;;;;;;5073819;28;20289;-76
2021/03/29 12:44:15;;;;;;;6.45;3.25;;;22.80;80.40;;;;;;5074130;28;20191;-76
2021/03/29 12:46:43;;;;;;;5.05;3.25;;;23.70;83.60;;;;;;5073107;28;20235;-76
2021/03/29 12:49:11;;;;;;;5.70;3.13;;;24.00;82.20;;;;;;5067138;28;20210;-76
2021/03/29 12:51:38;;;;;;;4.88;2.95;;;25.00;81.10;;;;;;5070453;28;20215;-76
2021/03/29 12:54:09;;;;;;;4.95;3.10;;;24.00;81.00;;;;;;5073222;28;20204;-76
2021/03/29 12:56:36;;;;;;;6.13;3.40;;;23.80;80.30;;;;;;5071524;28;20693;-76
2021/03/29 12:59:04;;;;;;;6.15;3.55;;;23.40;82.50;;;;;;5072475;28;20235;-76
2021/03/29 13:01:32;;;;;;;5.43;3.25;;;22.60;83.70;;;;;;5066000;28;20257;-76